Paraguacu, Brazil
Current Conditions -  °F | °C
As of 11:25 PM on Thursday 20 Nov 2014 (Local Time) from SBGW Reporting Station
Broken Clouds Broken Clouds  
Wind Chill: 73°   Ceiling: 2000
Heat Index: 73°   Visibility: 4mi
Dew Point: 61°   Wind: 2mph
Humidity: 65%   Direction: 20°NNE
Pressure: 30.03"   Gusts: NA
Location:  21.55°S, 45.74°W
Report Text: SBGW 210125Z 02002KT 7000 BKN020 BKN100 23/16 Q1017
Loading
Personal Weather Stations






























Interactive Weather Map New forecast layout! Learn more

10-Day Weather Forecast

Advertisements
Track Severe Weather on mobile